createdAt,value
2022-11-29T00:01:25.904Z,47.87
2022-11-29T00:03:53.534Z,49.22
2022-11-29T00:06:21.884Z,50.10
2022-11-29T00:08:49.543Z,53.75
2022-11-29T00:11:40.287Z,40.17
2022-11-29T00:14:08.114Z,40.37
2022-11-29T00:16:35.677Z,39.97
2022-11-29T00:19:03.322Z,43.20
2022-11-29T00:21:30.624Z,51.08
2022-11-29T00:23:57.950Z,45.38
2022-11-29T00:26:25.410Z,46.47
2022-11-29T00:28:54.145Z,115.68
2022-11-29T00:31:21.395Z,65.68
2022-11-29T00:33:49.243Z,38.47
2022-11-29T00:36:16.875Z,47.03
2022-11-29T00:38:44.517Z,42.33
2022-11-29T00:41:12.231Z,78.35
2022-11-29T00:43:40.045Z,60.00
2022-11-29T00:46:07.571Z,49.75
2022-11-29T00:48:35.068Z,35.13
2022-11-29T00:51:02.666Z,28.53
2022-11-29T00:53:30.049Z,30.35
2022-11-29T00:55:57.566Z,26.15
2022-11-29T00:58:24.897Z,24.30
2022-11-29T01:00:53.727Z,27.60
2022-11-29T01:03:21.438Z,27.03
2022-11-29T01:05:49.270Z,24.00
2022-11-29T01:08:17.391Z,26.35
2022-11-29T01:10:44.685Z,31.02
2022-11-29T01:13:12.035Z,26.23
2022-11-29T01:15:39.355Z,30.00
2022-11-29T01:18:06.689Z,30.45
2022-11-29T01:20:33.999Z,28.60
2022-11-29T01:23:01.243Z,29.13
2022-11-29T01:25:29.391Z,26.85
2022-11-29T01:27:56.763Z,26.30
2022-11-29T01:30:24.128Z,27.35
2022-11-29T01:32:51.493Z,28.98
2022-11-29T01:35:18.761Z,29.38
2022-11-29T01:37:46.063Z,28.08
2022-11-29T01:40:13.958Z,24.87
2022-11-29T01:42:41.270Z,29.15
2022-11-29T01:45:21.545Z,30.33
2022-11-29T01:47:50.040Z,40.63
2022-11-29T01:50:17.459Z,39.10
2022-11-29T01:52:44.914Z,33.47
2022-11-29T01:55:12.280Z,37.97
2022-11-29T01:57:40.590Z,41.72
2022-11-29T02:00:11.416Z,40.28
2022-11-29T02:02:44.191Z,41.72
2022-11-29T02:05:13.233Z,41.40
2022-11-29T02:07:41.028Z,46.97
2022-11-29T02:10:08.754Z,81.78
2022-11-29T02:12:54.664Z,44.70
2022-11-29T02:15:25.029Z,43.70
2022-11-29T02:17:52.341Z,32.93
2022-11-29T02:20:38.334Z,71.40
2022-11-29T02:23:24.491Z,53.55
2022-11-29T02:26:00.875Z,42.67
2022-11-29T02:28:54.482Z,51.97
2022-11-29T02:31:21.715Z,31.20
2022-11-29T02:34:07.944Z,36.85
2022-11-29T02:36:45.790Z,45.97
2022-11-29T02:39:19.149Z,47.88
2022-11-29T02:41:46.470Z,35.60
2022-11-29T02:44:32.450Z,50.92
2022-11-29T02:47:09.359Z,59.83
2022-11-29T02:50:06.205Z,71.75
2022-11-29T02:52:42.406Z,43.67
2022-11-29T02:55:32.988Z,47.90
2022-11-29T02:58:03.233Z,76.00
2022-11-29T03:00:30.693Z,48.72
2022-11-29T03:03:10.026Z,59.15
2022-11-29T03:05:55.892Z,37.17
2022-11-29T03:08:30.264Z,43.65
2022-11-29T03:11:20.827Z,36.90
2022-11-29T03:14:06.965Z,39.67
2022-11-29T03:16:52.835Z,37.97
2022-11-29T03:19:35.777Z,61.08
2022-11-29T03:22:06.105Z,53.17
2022-11-29T03:24:39.195Z,35.20
2022-11-29T03:27:10.532Z,129.73
2022-11-29T03:29:41.210Z,97.95
2022-11-29T03:32:26.999Z,43.80
2022-11-29T03:34:57.189Z,65.07
2022-11-29T03:37:43.724Z,84.87
2022-11-29T03:40:13.575Z,128.45
2022-11-29T03:42:51.217Z,161.68
2022-11-29T03:45:23.564Z,187.85
2022-11-29T03:48:08.782Z,157.32
2022-11-29T03:50:39.231Z,77.23
2022-11-29T03:53:21.053Z,75.32
2022-11-29T03:55:55.631Z,47.20
2022-11-29T03:58:41.616Z,33.35
2022-11-29T04:01:20.914Z,84.57
2022-11-29T04:04:06.952Z,47.93
2022-11-29T04:06:53.143Z,31.20
2022-11-29T04:09:38.959Z,49.10
2022-11-29T04:12:35.641Z,35.50
2022-11-29T04:15:14.114Z,50.70
2022-11-29T04:18:01.605Z,32.67
2022-11-29T04:20:41.140Z,40.13
2022-11-29T04:23:28.272Z,72.80
2022-11-29T04:26:04.495Z,47.67
2022-11-29T04:28:50.637Z,76.82
2022-11-29T04:31:27.475Z,77.15
2022-11-29T04:34:07.038Z,39.38
2022-11-29T04:36:49.666Z,48.47
2022-11-29T04:39:35.745Z,28.48
2022-11-29T04:42:08.866Z,36.33
2022-11-29T04:44:42.531Z,65.28
2022-11-29T04:47:22.198Z,70.78
2022-11-29T04:49:52.282Z,69.63
2022-11-29T04:52:38.505Z,46.55
2022-11-29T04:55:29.446Z,56.35
2022-11-29T04:58:10.025Z,35.53
2022-11-29T05:00:42.859Z,105.50
2022-11-29T05:03:32.172Z,96.20
2022-11-29T05:06:10.333Z,85.75
2022-11-29T05:08:46.788Z,70.53
2022-11-29T05:11:14.065Z,77.33
2022-11-29T05:14:05.596Z,68.72
2022-11-29T05:16:32.979Z,75.80
2022-11-29T05:19:09.331Z,61.03
2022-11-29T05:21:55.415Z,72.70
2022-11-29T05:24:31.859Z,79.77
2022-11-29T05:27:08.306Z,80.55
2022-11-29T05:29:59.040Z,126.50
2022-11-29T05:32:31.203Z,49.50
2022-11-29T05:35:17.055Z,68.00
2022-11-29T05:37:49.231Z,82.20
2022-11-29T05:40:22.486Z,116.82
2022-11-29T05:43:08.846Z,79.30
2022-11-29T05:45:42.206Z,63.42
2022-11-29T05:48:22.680Z,35.35
2022-11-29T05:51:12.516Z,25.97
2022-11-29T05:53:56.070Z,91.05
2022-11-29T05:56:42.394Z,48.85
2022-11-29T05:59:12.887Z,54.55
2022-11-29T06:01:40.370Z,34.13
2022-11-29T06:04:13.210Z,32.33
2022-11-29T06:07:05.066Z,60.42
2022-11-29T06:09:40.552Z,34.45
2022-11-29T06:12:16.994Z,35.67
2022-11-29T06:15:06.591Z,35.22
2022-11-29T06:17:48.887Z,45.47
2022-11-29T06:20:16.189Z,24.88
2022-11-29T06:23:06.930Z,42.33
2022-11-29T06:26:00.675Z,29.52
2022-11-29T06:28:44.377Z,68.20
2022-11-29T06:31:22.347Z,36.92
2022-11-29T06:34:08.237Z,34.95
2022-11-29T06:36:42.905Z,38.20
2022-11-29T06:39:11.053Z,44.95
2022-11-29T06:41:38.516Z,52.88
2022-11-29T06:44:06.515Z,54.43
2022-11-29T06:46:33.824Z,65.15
2022-11-29T06:49:07.403Z,63.17
2022-11-29T06:51:34.678Z,72.35
2022-11-29T06:54:12.396Z,97.60
2022-11-29T06:56:46.889Z,55.72
2022-11-29T06:59:33.112Z,68.47
2022-11-29T07:02:05.593Z,46.08
2022-11-29T07:04:45.417Z,29.95
2022-11-29T07:07:19.739Z,42.13
2022-11-29T07:09:49.379Z,60.13
2022-11-29T07:12:17.331Z,59.88
2022-11-29T07:14:45.274Z,68.28
2022-11-29T07:17:28.293Z,62.22
2022-11-29T07:20:18.842Z,77.75
2022-11-29T07:23:00.789Z,73.53
2022-11-29T07:25:38.736Z,46.80
2022-11-29T07:28:11.499Z,40.22
2022-11-29T07:31:04.948Z,35.95
2022-11-29T07:33:42.017Z,41.75
2022-11-29T07:36:15.281Z,24.75
2022-11-29T07:38:45.668Z,65.15
2022-11-29T07:41:15.737Z,41.67
2022-11-29T07:43:49.995Z,54.53
2022-11-29T07:46:17.331Z,55.28
2022-11-29T07:48:44.682Z,99.07
2022-11-29T07:51:12.464Z,105.55
2022-11-29T07:53:43.179Z,100.95
2022-11-29T07:56:10.609Z,88.28
2022-11-29T07:58:37.912Z,77.43
2022-11-29T08:01:05.369Z,37.95
2022-11-29T08:03:33.901Z,57.15
2022-11-29T08:06:01.282Z,23.95
2022-11-29T08:08:28.765Z,41.13
2022-11-29T08:10:56.046Z,21.15
2022-11-29T08:13:23.349Z,26.15
2022-11-29T08:15:50.721Z,24.25
2022-11-29T08:18:18.141Z,52.17
2022-11-29T08:20:46.444Z,19.95
2022-11-29T08:23:14.358Z,25.88
2022-11-29T08:25:41.857Z,18.40
2022-11-29T08:28:09.790Z,20.42
2022-11-29T08:30:37.406Z,17.35
2022-11-29T08:33:04.783Z,22.60
2022-11-29T08:35:32.234Z,18.13
2022-11-29T08:37:59.439Z,26.95
2022-11-29T08:40:26.762Z,23.10
2022-11-29T08:42:57.683Z,39.80
2022-11-29T08:45:25.008Z,39.88
2022-11-29T08:47:52.550Z,25.42
2022-11-29T08:50:19.974Z,24.58
2022-11-29T08:53:07.311Z,17.95
2022-11-29T08:55:36.785Z,17.42
2022-11-29T08:58:05.855Z,18.55
2022-11-29T09:00:33.781Z,15.93
2022-11-29T09:03:21.358Z,15.98
2022-11-29T09:05:48.767Z,20.23
2022-11-29T09:08:16.163Z,17.85
2022-11-29T09:10:43.866Z,21.42
2022-11-29T09:13:11.737Z,25.33
2022-11-29T09:15:39.606Z,22.00
2022-11-29T09:18:06.917Z,19.00
2022-11-29T09:20:34.397Z,27.20
2022-11-29T09:23:02.218Z,15.60
2022-11-29T09:25:29.492Z,22.35
2022-11-29T09:27:58.645Z,23.50
2022-11-29T09:30:26.490Z,18.80
2022-11-29T09:32:53.800Z,21.42
2022-11-29T09:35:21.251Z,20.30
2022-11-29T09:37:48.586Z,30.30
2022-11-29T09:40:17.708Z,21.37
2022-11-29T09:42:53.139Z,19.83
2022-11-29T09:45:22.109Z,19.48
2022-11-29T09:47:58.363Z,17.63
2022-11-29T09:50:43.090Z,23.23
2022-11-29T09:53:16.884Z,21.93
2022-11-29T09:55:56.072Z,19.58
2022-11-29T09:58:29.431Z,25.13
2022-11-29T10:01:00.197Z,23.40
2022-11-29T10:03:32.388Z,25.30
2022-11-29T10:06:02.614Z,23.17
2022-11-29T10:08:32.758Z,21.65
2022-11-29T10:11:15.061Z,22.17
2022-11-29T10:13:45.754Z,18.30
2022-11-29T10:16:18.378Z,21.00
2022-11-29T10:19:08.083Z,22.67
2022-11-29T10:21:37.496Z,30.95
2022-11-29T10:24:05.992Z,27.02
2022-11-29T10:26:35.310Z,21.55
2022-11-29T10:29:03.084Z,24.00
2022-11-29T10:31:43.912Z,32.33
2022-11-29T10:34:15.524Z,21.20
2022-11-29T10:36:50.848Z,30.58
2022-11-29T10:39:26.647Z,20.92
2022-11-29T10:42:00.868Z,27.10
2022-11-29T10:44:28.453Z,32.50
2022-11-29T10:46:56.217Z,24.48
2022-11-29T10:49:29.007Z,17.33
2022-11-29T10:51:56.335Z,20.42
2022-11-29T10:54:37.840Z,23.90
2022-11-29T10:57:09.406Z,22.47
2022-11-29T10:59:39.709Z,14.75
2022-11-29T11:02:19.669Z,18.35
2022-11-29T11:04:48.522Z,24.30
2022-11-29T11:07:30.836Z,17.92
2022-11-29T11:09:58.822Z,21.17
2022-11-29T11:12:30.577Z,19.63
2022-11-29T11:15:23.979Z,21.20
2022-11-29T11:18:04.830Z,17.92
2022-11-29T11:20:40.637Z,19.63
2022-11-29T11:23:09.028Z,24.80
2022-11-29T11:25:38.355Z,17.98
2022-11-29T11:28:15.505Z,18.10
2022-11-29T11:30:49.865Z,19.15
2022-11-29T11:33:22.932Z,27.23
2022-11-29T11:36:03.994Z,26.03
2022-11-29T11:38:31.672Z,27.33
2022-11-29T11:41:04.113Z,27.65
2022-11-29T11:43:32.481Z,18.50
2022-11-29T11:45:59.806Z,19.50
2022-11-29T11:48:27.384Z,20.03
2022-11-29T11:50:57.158Z,18.92
2022-11-29T11:53:38.028Z,17.60
2022-11-29T11:56:14.355Z,20.42
2022-11-29T11:58:52.758Z,20.40
2022-11-29T12:01:20.013Z,16.33
2022-11-29T12:03:57.475Z,17.10
2022-11-29T12:06:46.599Z,16.67
2022-11-29T12:09:32.536Z,23.73
2022-11-29T12:12:04.149Z,17.40
2022-11-29T12:14:37.402Z,22.47
2022-11-29T12:17:31.273Z,18.15
2022-11-29T12:20:16.074Z,19.00
2022-11-29T12:22:49.092Z,20.80
2022-11-29T12:25:22.745Z,20.33
2022-11-29T12:27:50.640Z,18.50
2022-11-29T12:30:19.468Z,19.58
2022-11-29T12:32:52.393Z,20.65
2022-11-29T12:35:19.723Z,18.70
2022-11-29T12:37:54.162Z,19.88
2022-11-29T12:40:24.187Z,22.23
2022-11-29T12:42:58.042Z,16.92
2022-11-29T12:45:25.353Z,15.75
2022-11-29T12:48:13.629Z,19.83
2022-11-29T12:50:40.923Z,15.32
2022-11-29T12:53:20.096Z,17.10
2022-11-29T12:56:08.400Z,16.33
2022-11-29T12:58:54.426Z,17.75
2022-11-29T13:01:24.866Z,19.02
2022-11-29T13:03:55.247Z,21.20
2022-11-29T13:06:36.162Z,22.97
2022-11-29T13:09:09.473Z,21.00
2022-11-29T13:11:48.484Z,23.58
2022-11-29T13:17:25.077Z,22.92
2022-11-29T13:20:02.687Z,19.67
2022-11-29T13:22:39.809Z,25.42
2022-11-29T13:25:14.576Z,18.67
2022-11-29T13:27:44.816Z,30.60
2022-11-29T13:30:15.827Z,25.35
2022-11-29T13:32:51.798Z,21.93
2022-11-29T13:35:40.453Z,21.80
2022-11-29T13:38:07.815Z,15.93
2022-11-29T13:40:40.850Z,20.73
2022-11-29T13:43:28.248Z,18.10
2022-11-29T13:46:17.266Z,21.13
2022-11-29T13:48:54.241Z,21.88
2022-11-29T13:51:21.485Z,21.52
2022-11-29T13:53:49.289Z,24.58
2022-11-29T13:56:46.578Z,21.55
2022-11-29T13:59:26.469Z,21.40
2022-11-29T14:01:54.536Z,24.98
2022-11-29T14:04:26.473Z,36.47
2022-11-29T14:07:04.687Z,28.38
2022-11-29T14:09:34.808Z,26.30
2022-11-29T14:12:17.118Z,24.47
2022-11-29T14:15:02.556Z,23.38
2022-11-29T14:17:29.780Z,21.08
2022-11-29T14:20:17.057Z,20.00
2022-11-29T14:23:02.850Z,20.38
2022-11-29T14:28:18.503Z,23.75
2022-11-29T14:30:45.893Z,23.38
2022-11-29T14:33:13.160Z,25.20
2022-11-29T14:35:44.381Z,26.15
2022-11-29T14:38:21.783Z,25.93
2022-11-29T14:41:10.168Z,27.48
2022-11-29T14:43:39.518Z,27.95
2022-11-29T14:46:16.060Z,34.75
2022-11-29T14:48:48.505Z,36.10
2022-11-29T14:51:17.226Z,39.07
2022-11-29T14:53:45.690Z,39.53
2022-11-29T14:56:42.514Z,33.35
2022-11-29T14:59:45.203Z,24.33
2022-11-29T15:02:25.652Z,32.40
2022-11-29T15:04:54.337Z,44.07
2022-11-29T15:07:25.851Z,27.35
2022-11-29T15:09:56.311Z,27.48
2022-11-29T15:12:26.954Z,27.67
2022-11-29T15:15:09.538Z,40.45
2022-11-29T15:17:36.782Z,36.93
2022-11-29T15:20:22.799Z,37.72
2022-11-29T15:22:58.418Z,26.00
2022-11-29T15:25:27.605Z,33.42
2022-11-29T15:27:55.003Z,29.65
2022-11-29T15:30:28.689Z,30.43
2022-11-29T15:32:56.220Z,29.77
2022-11-29T15:35:23.802Z,31.67
2022-11-29T15:37:52.129Z,28.55
2022-11-29T15:40:24.754Z,31.52
2022-11-29T15:43:00.045Z,33.07
2022-11-29T15:45:29.588Z,31.63
2022-11-29T15:48:11.160Z,26.83
2022-11-29T15:50:39.226Z,31.17
2022-11-29T15:53:11.309Z,27.08
2022-11-29T15:55:38.942Z,28.00
2022-11-29T15:58:08.929Z,27.45
2022-11-29T16:00:36.680Z,31.77
2022-11-29T16:03:05.157Z,36.38
2022-11-29T16:05:33.708Z,43.53
2022-11-29T16:08:02.591Z,44.90
2022-11-29T16:10:35.298Z,61.65
2022-11-29T16:13:23.128Z,42.50
2022-11-29T16:15:50.511Z,83.93
2022-11-29T16:18:21.595Z,29.58
2022-11-29T16:21:01.916Z,42.30
2022-11-29T16:23:39.319Z,62.60
2022-11-29T16:26:17.020Z,164.45
2022-11-29T16:28:46.250Z,65.55
2022-11-29T16:31:19.613Z,48.28
2022-11-29T16:33:47.669Z,112.43
2022-11-29T16:36:16.664Z,99.93
2022-11-29T16:38:48.223Z,73.50
2022-11-29T16:41:44.877Z,99.63
2022-11-29T16:44:41.426Z,105.45
2022-11-29T16:47:12.804Z,53.38
2022-11-29T16:49:40.158Z,104.43
2022-11-29T16:52:27.312Z,101.55
2022-11-29T16:54:54.622Z,94.43
2022-11-29T16:57:21.946Z,91.38
2022-11-29T16:59:49.576Z,93.30
2022-11-29T17:02:17.333Z,75.60
2022-11-29T17:04:45.379Z,62.42
2022-11-29T17:07:15.835Z,53.63
2022-11-29T17:09:43.493Z,70.82
2022-11-29T17:12:13.493Z,56.90
2022-11-29T17:14:40.862Z,56.15
2022-11-29T17:17:08.232Z,70.32
2022-11-29T17:19:35.683Z,74.55
2022-11-29T17:22:04.103Z,58.00
2022-11-29T17:24:31.444Z,42.33
2022-11-29T17:26:58.823Z,58.80
2022-11-29T17:29:26.120Z,52.40
2022-11-29T17:31:53.661Z,36.45
2022-11-29T17:34:21.199Z,41.50
2022-11-29T17:36:49.443Z,35.88
2022-11-29T17:39:20.108Z,67.80
2022-11-29T17:41:47.465Z,36.28
2022-11-29T17:44:14.761Z,24.83
2022-11-29T17:46:42.038Z,38.55
2022-11-29T17:49:10.443Z,24.27
2022-11-29T17:51:54.239Z,19.23
2022-11-29T17:54:25.133Z,14.25
2022-11-29T17:56:52.534Z,19.00
2022-11-29T17:59:20.538Z,20.05
2022-11-29T18:01:48.092Z,28.40
2022-11-29T18:04:15.601Z,15.80
2022-11-29T18:06:43.553Z,11.88
2022-11-29T18:09:11.646Z,28.98
2022-11-29T18:11:48.227Z,24.92
2022-11-29T18:14:17.780Z,19.85
2022-11-29T18:16:45.629Z,17.85
2022-11-29T18:19:14.371Z,33.42
2022-11-29T18:21:41.688Z,48.08
2022-11-29T18:24:09.333Z,34.25
2022-11-29T18:26:37.385Z,18.90
2022-11-29T18:29:05.536Z,38.42
2022-11-29T18:31:34.114Z,24.05
2022-11-29T18:34:02.322Z,17.00
2022-11-29T18:36:31.046Z,21.70
2022-11-29T18:39:00.599Z,19.40
2022-11-29T18:41:29.217Z,10.20
2022-11-29T18:43:58.282Z,12.25
2022-11-29T18:46:26.062Z,10.35
2022-11-29T18:48:53.407Z,12.15
2022-11-29T18:51:20.994Z,9.43
2022-11-29T18:53:48.330Z,11.10
2022-11-29T18:56:20.029Z,8.98
2022-11-29T18:58:47.968Z,15.32
2022-11-29T19:01:16.478Z,15.82
2022-11-29T19:03:44.971Z,10.93
2022-11-29T19:06:17.629Z,12.55
2022-11-29T19:08:45.275Z,11.68
2022-11-29T19:11:13.684Z,8.52
2022-11-29T19:13:41.440Z,10.85
2022-11-29T19:16:13.094Z,11.07
2022-11-29T19:18:40.816Z,18.25
2022-11-29T19:21:09.167Z,17.98
2022-11-29T19:23:36.615Z,33.80
2022-11-29T19:26:14.055Z,15.07
2022-11-29T19:28:42.622Z,11.15
2022-11-29T19:31:10.489Z,9.60
2022-11-29T19:33:38.589Z,9.38
2022-11-29T19:36:06.460Z,10.57
2022-11-29T19:38:35.260Z,10.30
2022-11-29T19:41:09.679Z,10.13
2022-11-29T19:43:36.975Z,8.50
2022-11-29T19:46:11.780Z,22.83
2022-11-29T19:48:39.362Z,10.93
2022-11-29T19:51:07.122Z,11.50
2022-11-29T19:53:35.231Z,11.82
2022-11-29T19:56:10.102Z,10.60
2022-11-29T19:58:37.422Z,9.88
2022-11-29T20:01:08.684Z,8.35
2022-11-29T20:03:36.192Z,9.05
2022-11-29T20:06:03.680Z,8.57
2022-11-29T20:08:31.082Z,9.63
2022-11-29T20:11:05.938Z,8.55
2022-11-29T20:13:33.267Z,10.65
2022-11-29T20:16:04.767Z,8.15
2022-11-29T20:18:35.588Z,8.65
2022-11-29T20:21:04.011Z,12.73
2022-11-29T20:23:31.528Z,19.50
2022-11-29T20:25:58.913Z,10.02
2022-11-29T20:28:26.797Z,10.75
2022-11-29T20:30:54.574Z,15.60
2022-11-29T20:33:24.239Z,10.57
2022-11-29T20:35:57.007Z,9.52
2022-11-29T20:38:36.484Z,7.88
2022-11-29T20:41:15.654Z,8.38
2022-11-29T20:43:48.540Z,7.83
2022-11-29T20:46:15.919Z,8.27
2022-11-29T20:48:43.309Z,9.00
2022-11-29T20:51:11.322Z,9.18
2022-11-29T20:53:42.946Z,8.95
2022-11-29T20:56:11.232Z,8.68
2022-11-29T20:58:38.622Z,9.43
2022-11-29T21:01:06.228Z,8.88
2022-11-29T21:03:33.683Z,8.48
2022-11-29T21:06:05.239Z,11.85
2022-11-29T21:08:33.011Z,9.65
2022-11-29T21:11:05.317Z,11.20
2022-11-29T21:13:33.142Z,8.48
2022-11-29T21:16:01.037Z,9.15
2022-11-29T21:18:29.163Z,8.40
2022-11-29T21:21:05.458Z,9.85
2022-11-29T21:23:35.601Z,9.60
2022-11-29T21:26:08.797Z,9.57
2022-11-29T21:28:38.653Z,10.23
2022-11-29T21:31:06.167Z,9.65
2022-11-29T21:33:33.745Z,9.68
2022-11-29T21:36:01.713Z,13.50
2022-11-29T21:38:29.577Z,9.57
2022-11-29T21:40:56.890Z,9.48
2022-11-29T21:43:50.202Z,10.98
2022-11-29T21:46:11.745Z,9.37
2022-11-29T21:48:42.246Z,9.05
2022-11-29T21:51:11.164Z,11.88
2022-11-29T21:53:39.033Z,9.88
2022-11-29T21:56:07.799Z,9.95
2022-11-29T21:58:35.880Z,10.57
2022-11-29T22:01:09.135Z,12.45
2022-11-29T22:03:37.722Z,9.43
2022-11-29T22:06:06.225Z,10.02
2022-11-29T22:08:34.782Z,10.68
2022-11-29T22:11:30.899Z,12.63
2022-11-29T22:14:14.161Z,10.80
2022-11-29T22:16:44.189Z,15.05
2022-11-29T22:19:15.073Z,11.60
2022-11-29T22:21:43.252Z,12.32
2022-11-29T22:24:11.111Z,13.70
2022-11-29T22:26:38.789Z,12.23
2022-11-29T22:29:06.354Z,14.43
2022-11-29T22:31:35.323Z,15.40
2022-11-29T22:34:02.739Z,11.82
2022-11-29T22:36:29.993Z,12.53
2022-11-29T22:38:57.283Z,11.57
2022-11-29T22:41:24.486Z,13.10
2022-11-29T22:43:51.975Z,14.50
2022-11-29T22:46:20.763Z,11.95
2022-11-29T22:48:49.077Z,10.20
2022-11-29T22:51:17.482Z,14.13
2022-11-29T22:53:49.169Z,12.88
2022-11-29T22:56:16.515Z,11.40
2022-11-29T22:58:43.848Z,11.82
2022-11-29T23:01:15.327Z,12.93
2022-11-29T23:03:45.785Z,12.68
2022-11-29T23:06:14.165Z,10.25
2022-11-29T23:08:42.048Z,15.80
2022-11-29T23:11:11.187Z,12.13
2022-11-29T23:13:39.716Z,11.53
2022-11-29T23:16:08.151Z,11.50
2022-11-29T23:18:35.515Z,13.35
2022-11-29T23:21:03.804Z,10.55
2022-11-29T23:23:31.538Z,9.63
2022-11-29T23:25:59.374Z,10.32
2022-11-29T23:28:26.952Z,12.32
2022-11-29T23:30:54.357Z,10.05
2022-11-29T23:33:24.960Z,10.88
2022-11-29T23:35:52.482Z,11.30
2022-11-29T23:38:19.787Z,14.47
2022-11-29T23:40:47.240Z,12.93
2022-11-29T23:43:14.562Z,11.45
2022-11-29T23:45:42.209Z,10.57
2022-11-29T23:48:09.714Z,10.48
2022-11-29T23:50:37.033Z,14.30
2022-11-29T23:53:04.858Z,10.85
2022-11-29T23:55:32.130Z,12.93
2022-11-29T23:58:01.243Z,11.27
